Terminal Aerodrome Forecast
Issued by NWS

Home | Current Version | Previous Version | Text Only | Print | Product List | Glossary On
Versions: 1 2 3 4 5 6 7 8 9 10 11 12 13 14 15 16 17 18 19 20 21 22 23 24 25 26 27 28 29 30 31 32 33 34 35 36 37 38 39 40 41 42 43 44 45 46 47 48 49 50
000
FTUS43 KGRB 162332
TAFMTW
TAF
KMTW 162332Z 1700/1724 14003KT 1/4SM FG OVC002
      TEMPO 1714/1715 1 1/2SM BR BKN004
     FM171500 15006KT 4SM BR BKN012
     FM171700 16010G16KT P6SM SCT200=

USA.gov is the U.S. government's official web portal to all federal, state and local government web resources and services.